createdAt,value
2022-10-18T00:00:05.926Z,107307.97
2022-10-18T00:02:32.440Z,107320.34
2022-10-18T00:04:58.888Z,107282.81
2022-10-18T00:07:25.295Z,107209.91
2022-10-18T00:09:51.681Z,107203.53
2022-10-18T00:12:18.119Z,107194.22
2022-10-18T00:14:44.513Z,107118.06
2022-10-18T00:17:10.864Z,107165.22
2022-10-18T00:19:37.319Z,107195.59
2022-10-18T00:22:03.685Z,107147.66
2022-10-18T00:24:30.042Z,107139.72
2022-10-18T00:26:56.421Z,107122.78
2022-10-18T00:29:22.839Z,107070.78
2022-10-18T00:31:49.265Z,107007.31
2022-10-18T00:34:16.756Z,106974.31
2022-10-18T00:36:44.393Z,107001.22
2022-10-18T00:39:16.729Z,106947.09
2022-10-18T00:41:43.681Z,106936.03
2022-10-18T00:44:12.845Z,106915.41
2022-10-18T00:46:42.390Z,106887.63
2022-10-18T00:49:16.407Z,106859.66
2022-10-18T00:51:46.498Z,106786.28
2022-10-18T00:54:14.672Z,106689.78
2022-10-18T00:56:41.519Z,106606.97
2022-10-18T00:59:08.250Z,106587.38
2022-10-18T01:01:34.681Z,106596.97
2022-10-18T01:04:01.307Z,106661.72
2022-10-18T01:06:28.887Z,106663.19
2022-10-18T01:09:16.201Z,106637.53
2022-10-18T01:11:45.329Z,106612.41
2022-10-18T01:14:30.093Z,106558.22
2022-10-18T01:17:03.914Z,106474.03
2022-10-18T01:19:52.768Z,106474.13
2022-10-18T01:25:43.035Z,106767.41
2022-10-18T01:28:15.599Z,106690.63
2022-10-18T01:30:51.446Z,106660.84
2022-10-18T01:33:32.043Z,106659.91
2022-10-18T01:36:05.794Z,106692.28
2022-10-18T01:38:34.601Z,106671.00
2022-10-18T01:41:03.191Z,106625.16
2022-10-18T01:43:31.649Z,106555.19
2022-10-18T01:46:00.576Z,106459.69
2022-10-18T01:48:27.161Z,106517.84
2022-10-18T01:50:53.570Z,106496.41
2022-10-18T01:53:31.611Z,106405.47
2022-10-18T01:56:09.965Z,106432.47
2022-10-18T01:58:56.945Z,106436.72
2022-10-18T02:01:41.923Z,106445.50
2022-10-18T02:04:42.107Z,106402.88
2022-10-18T02:07:31.375Z,106358.00
2022-10-18T02:10:10.837Z,106366.84
2022-10-18T02:12:41.508Z,106331.50
2022-10-18T02:15:09.739Z,106421.84
2022-10-18T02:17:38.047Z,106407.59
2022-10-18T02:20:08.742Z,106444.59
2022-10-18T02:22:36.885Z,106425.44
2022-10-18T02:25:09.759Z,106448.81
2022-10-18T02:27:38.038Z,106450.25
2022-10-18T02:30:05.610Z,106440.66
2022-10-18T02:32:37.320Z,106421.44
2022-10-18T02:35:09.885Z,106408.59
2022-10-18T02:37:39.863Z,106385.03
2022-10-18T02:40:09.009Z,106359.56
2022-10-18T02:42:38.093Z,106327.09
2022-10-18T02:45:06.297Z,106278.00
2022-10-18T02:47:32.861Z,106303.84
2022-10-18T02:49:59.538Z,106324.44
2022-10-18T02:52:25.993Z,106326.97
2022-10-18T02:54:52.402Z,106320.69
2022-10-18T02:57:18.790Z,106328.78
2022-10-18T02:59:45.164Z,106287.94
2022-10-18T03:02:11.653Z,106209.97
2022-10-18T03:04:38.020Z,106263.53
2022-10-18T03:07:04.398Z,106179.66
2022-10-18T03:09:30.804Z,106176.47
2022-10-18T03:11:57.478Z,106137.84
2022-10-18T03:14:23.876Z,106076.56
2022-10-18T03:16:50.294Z,105987.22
2022-10-18T03:19:16.742Z,106001.66
2022-10-18T03:21:43.126Z,105934.84
2022-10-18T03:24:09.559Z,105905.19
2022-10-18T03:26:35.923Z,105899.19
2022-10-18T03:29:02.446Z,105830.00
2022-10-18T03:34:00.295Z,105747.41
2022-10-18T03:36:26.655Z,105688.28
2022-10-18T03:38:53.058Z,105652.72
2022-10-18T03:41:19.431Z,105617.19
2022-10-18T03:43:45.824Z,105535.38
2022-10-18T03:46:12.540Z,105546.47
2022-10-18T03:48:39.095Z,105541.94
2022-10-18T03:51:05.575Z,105525.72
2022-10-18T03:53:31.949Z,105552.53
2022-10-18T03:55:58.476Z,105615.38
2022-10-18T03:58:25.014Z,105649.03
2022-10-18T04:00:53.009Z,105652.50
2022-10-18T04:03:21.164Z,105640.28
2022-10-18T04:05:48.415Z,105725.97
2022-10-18T04:08:15.557Z,105722.28
2022-10-18T04:10:42.198Z,105711.28
2022-10-18T04:13:08.928Z,105734.34
2022-10-18T04:15:35.364Z,105733.19
2022-10-18T04:18:02.049Z,105703.81
2022-10-18T04:20:28.558Z,105709.53
2022-10-18T04:22:54.966Z,105682.59
2022-10-18T04:25:22.162Z,105742.72
2022-10-18T04:27:48.740Z,105721.25
2022-10-18T04:30:15.287Z,105827.66
2022-10-18T04:32:41.736Z,105854.38
2022-10-18T04:35:09.458Z,105893.94
2022-10-18T04:37:35.825Z,105945.16
2022-10-18T04:40:02.717Z,105925.66
2022-10-18T04:42:29.130Z,105964.88
2022-10-18T04:44:55.517Z,105969.91
2022-10-18T04:47:22.002Z,105917.28
2022-10-18T04:49:48.352Z,105998.66
2022-10-18T04:52:14.730Z,105999.75
2022-10-18T04:54:41.090Z,106009.88
2022-10-18T04:57:07.467Z,105993.88
2022-10-18T04:59:33.892Z,105986.03
2022-10-18T05:02:00.410Z,106052.13
2022-10-18T05:04:26.896Z,106019.34
2022-10-18T05:06:53.267Z,106076.50
2022-10-18T05:09:19.666Z,106060.47
2022-10-18T05:11:46.079Z,106111.13
2022-10-18T05:14:12.514Z,106193.84
2022-10-18T05:16:38.889Z,106239.34
2022-10-18T05:19:05.875Z,106234.22
2022-10-18T05:21:32.601Z,106294.22
2022-10-18T05:23:58.986Z,106270.00
2022-10-18T05:26:25.373Z,106243.00
2022-10-18T05:28:51.839Z,106302.47
2022-10-18T05:31:18.338Z,106248.44
2022-10-18T05:33:44.724Z,106298.13
2022-10-18T05:36:11.298Z,106317.50
2022-10-18T05:38:42.102Z,106336.59
2022-10-18T05:41:09.682Z,106347.41
2022-10-18T05:43:36.078Z,106383.66
2022-10-18T05:46:02.552Z,106442.34
2022-10-18T05:48:28.940Z,106403.81
2022-10-18T05:50:58.411Z,106388.34
2022-10-18T05:53:36.334Z,106292.59
2022-10-18T05:56:04.068Z,106332.31
2022-10-18T05:58:30.644Z,106304.47
2022-10-18T06:01:01.300Z,106309.63
2022-10-18T06:03:27.957Z,106277.13
2022-10-18T06:06:03.145Z,106289.66
2022-10-18T06:08:30.075Z,106316.41
2022-10-18T06:10:57.001Z,106279.03
2022-10-18T06:13:23.675Z,106250.47
2022-10-18T06:15:50.355Z,106270.63
2022-10-18T06:18:16.785Z,106181.94
2022-10-18T06:20:43.203Z,106217.63
2022-10-18T06:23:09.623Z,106243.72
2022-10-18T06:25:36.048Z,106161.03
2022-10-18T06:28:06.011Z,106144.88
2022-10-18T06:30:34.378Z,106132.91
2022-10-18T06:33:01.290Z,106135.44
2022-10-18T06:35:27.789Z,106022.75
2022-10-18T06:37:54.148Z,106092.31
2022-10-18T06:40:20.532Z,106053.50
2022-10-18T06:42:55.202Z,106013.53
2022-10-18T06:45:27.108Z,105978.13
2022-10-18T06:47:53.504Z,105969.06
2022-10-18T06:50:19.952Z,105944.66
2022-10-18T06:52:46.301Z,105866.13
2022-10-18T06:55:12.788Z,105938.56
2022-10-18T06:57:39.234Z,105994.09
2022-10-18T07:00:05.999Z,105915.41
2022-10-18T07:02:32.532Z,105988.50
2022-10-18T07:04:59.268Z,105997.91
2022-10-18T07:07:25.700Z,105923.06
2022-10-18T07:09:52.145Z,105991.97
2022-10-18T07:12:18.531Z,105920.88
2022-10-18T07:14:46.265Z,105917.75
2022-10-18T07:17:12.683Z,105877.84
2022-10-18T07:19:39.085Z,105873.50
2022-10-18T07:22:05.458Z,105864.06
2022-10-18T07:27:03.268Z,105826.47
2022-10-18T07:29:29.728Z,105768.56
2022-10-18T07:31:56.117Z,105776.06
2022-10-18T07:34:22.521Z,105746.00
2022-10-18T07:36:48.922Z,105752.25
2022-10-18T07:39:16.284Z,105669.94
2022-10-18T07:41:42.764Z,105657.31
2022-10-18T07:44:09.141Z,105586.25
2022-10-18T07:46:35.790Z,105522.63
2022-10-18T07:49:02.200Z,105542.19
2022-10-18T07:51:28.809Z,105555.03
2022-10-18T07:53:55.182Z,105498.84
2022-10-18T07:56:22.219Z,105543.09
2022-10-18T07:58:53.732Z,105481.75
2022-10-18T08:01:21.822Z,105459.09
2022-10-18T08:03:48.971Z,105452.78
2022-10-18T08:06:20.368Z,105496.34
2022-10-18T08:08:46.909Z,105459.50
2022-10-18T08:11:19.134Z,105532.47
2022-10-18T08:13:46.360Z,105510.13
2022-10-18T08:16:15.458Z,105503.63
2022-10-18T08:18:42.422Z,105499.59
2022-10-18T08:21:11.393Z,105476.81
2022-10-18T08:23:39.194Z,105501.94
2022-10-18T08:26:09.966Z,105490.69
2022-10-18T08:28:37.173Z,105534.81
2022-10-18T08:31:15.596Z,105505.13
2022-10-18T08:33:41.951Z,105602.13
2022-10-18T08:36:12.066Z,105741.44
2022-10-18T08:38:40.457Z,105947.25
2022-10-18T08:41:28.480Z,106064.59
2022-10-18T08:44:13.709Z,105838.19
2022-10-18T08:46:44.816Z,105526.28
2022-10-18T08:49:26.733Z,105221.50
2022-10-18T08:51:53.973Z,104988.25
2022-10-18T08:55:02.525Z,104823.28
2022-10-18T08:57:30.975Z,104792.31
2022-10-18T08:59:57.579Z,104633.75
2022-10-18T09:02:48.445Z,104455.75
2022-10-18T09:05:33.916Z,104380.50
2022-10-18T09:08:18.454Z,104348.38
2022-10-18T09:11:07.810Z,104327.31
2022-10-18T09:14:01.493Z,104317.41
2022-10-18T09:16:51.960Z,104251.66
2022-10-18T09:19:31.176Z,104284.19
2022-10-18T09:22:15.842Z,104202.81
2022-10-18T09:25:00.297Z,104245.63
2022-10-18T09:27:49.186Z,104191.00
2022-10-18T09:30:26.584Z,104181.56
2022-10-18T09:33:06.256Z,104190.59
2022-10-18T09:35:52.330Z,104216.13
2022-10-18T09:38:26.717Z,104180.56
2022-10-18T09:40:58.299Z,104160.38
2022-10-18T09:43:42.251Z,104138.28
2022-10-18T09:46:09.265Z,104169.22
2022-10-18T09:49:04.434Z,104203.22
2022-10-18T09:51:36.827Z,104224.78
2022-10-18T09:54:24.586Z,104173.06
2022-10-18T09:56:57.781Z,104224.28
2022-10-18T09:59:39.784Z,104228.56
2022-10-18T10:02:07.277Z,104363.88
2022-10-18T10:04:33.747Z,104415.56
2022-10-18T10:07:01.547Z,104385.09
2022-10-18T10:09:41.417Z,103524.38
2022-10-18T10:12:30.704Z,103940.28
2022-10-18T10:15:16.756Z,103962.75
2022-10-18T10:17:43.380Z,103837.78
2022-10-18T10:20:21.456Z,103852.91
2022-10-18T10:22:49.859Z,104065.06
2022-10-18T10:25:23.364Z,104093.16
2022-10-18T10:27:50.436Z,104171.97
2022-10-18T10:30:30.141Z,104239.63
2022-10-18T10:32:57.168Z,104369.22
2022-10-18T10:35:53.231Z,104341.81
2022-10-18T10:38:25.678Z,104394.34
2022-10-18T10:40:52.775Z,104443.78
2022-10-18T10:43:39.380Z,104536.06
2022-10-18T10:46:12.913Z,104459.13
2022-10-18T10:49:09.591Z,104533.59
2022-10-18T10:51:42.092Z,104448.78
2022-10-18T10:54:22.188Z,104439.97
2022-10-18T10:57:00.416Z,104378.44
2022-10-18T10:59:31.659Z,104379.97
2022-10-18T11:02:26.026Z,104392.06
2022-10-18T11:04:54.946Z,104397.66
2022-10-18T11:07:36.476Z,104388.53
2022-10-18T11:10:13.490Z,104446.28
2022-10-18T11:12:49.147Z,104420.19
2022-10-18T11:15:38.991Z,104397.66
2022-10-18T11:18:19.000Z,104254.09
2022-10-18T11:21:03.797Z,104293.25
2022-10-18T11:23:35.499Z,104206.84
2022-10-18T11:26:10.872Z,104092.53
2022-10-18T11:28:56.077Z,104019.94
2022-10-18T11:32:16.574Z,103890.84
2022-10-18T11:34:42.913Z,103908.38
2022-10-18T11:37:37.509Z,103943.47
2022-10-18T11:40:23.545Z,103844.88
2022-10-18T11:43:00.564Z,103848.13
2022-10-18T11:45:49.879Z,103919.81
2022-10-18T11:48:35.561Z,103978.84
2022-10-18T11:51:13.072Z,103863.16
2022-10-18T11:54:06.698Z,103953.94
2022-10-18T11:57:15.589Z,103920.09
2022-10-18T12:00:23.519Z,103909.56
2022-10-18T12:03:14.326Z,103742.81
2022-10-18T12:05:44.439Z,103725.75
2022-10-18T12:08:21.312Z,103784.34
2022-10-18T12:11:04.721Z,103698.22
2022-10-18T12:13:41.078Z,103689.91
2022-10-18T12:16:09.286Z,103742.19
2022-10-18T12:18:45.591Z,103805.53
2022-10-18T12:21:13.004Z,103759.84
2022-10-18T12:23:50.928Z,103829.66
2022-10-18T12:26:17.876Z,103844.31
2022-10-18T12:29:02.836Z,103953.34
2022-10-18T12:31:39.052Z,103894.38
2022-10-18T12:34:23.537Z,104023.44
2022-10-18T12:37:12.207Z,104107.25
2022-10-18T12:40:08.723Z,104102.69
2022-10-18T12:42:40.544Z,103914.22
2022-10-18T12:45:19.756Z,103785.56
2022-10-18T12:47:46.427Z,103530.91
2022-10-18T12:50:28.144Z,103390.97
2022-10-18T12:53:18.184Z,103282.00
2022-10-18T12:55:50.247Z,103338.41
2022-10-18T12:58:32.582Z,103408.28
2022-10-18T13:01:01.196Z,103369.84
2022-10-18T13:03:29.086Z,103415.34
2022-10-18T13:06:00.721Z,103489.69
2022-10-18T13:08:28.179Z,103468.66
2022-10-18T13:11:09.912Z,103493.91
2022-10-18T13:14:09.105Z,103448.56
2022-10-18T13:16:57.141Z,103413.53
2022-10-18T13:19:44.931Z,103328.78
2022-10-18T13:22:25.492Z,103138.13
2022-10-18T13:25:10.176Z,103303.38
2022-10-18T13:27:44.616Z,103061.03
2022-10-18T13:30:17.503Z,102986.75
2022-10-18T13:32:58.734Z,102809.09
2022-10-18T13:35:43.974Z,102889.22
2022-10-18T13:38:31.760Z,102901.63
2022-10-18T13:41:06.105Z,102840.69
2022-10-18T13:43:54.147Z,102877.38
2022-10-18T13:46:32.668Z,102862.22
2022-10-18T13:49:05.253Z,102883.38
2022-10-18T13:51:42.646Z,102830.31
2022-10-18T13:54:18.256Z,102884.34
2022-10-18T13:57:10.870Z,102883.06
2022-10-18T13:59:55.998Z,102925.78
2022-10-18T14:02:51.091Z,103051.81
2022-10-18T14:05:27.254Z,103014.06
2022-10-18T14:08:04.735Z,103040.44
2022-10-18T14:11:02.088Z,103051.78
2022-10-18T14:13:38.910Z,103043.81
2022-10-18T14:16:29.806Z,103102.22
2022-10-18T14:19:08.547Z,103142.09
2022-10-18T14:21:39.943Z,103175.25
2022-10-18T14:24:26.516Z,103168.16
2022-10-18T14:27:11.443Z,103149.41
2022-10-18T14:29:37.897Z,103158.38
2022-10-18T14:32:09.231Z,103101.09
2022-10-18T14:34:35.939Z,103006.03
2022-10-18T14:37:02.415Z,103077.25
2022-10-18T14:39:29.011Z,103092.66
2022-10-18T14:41:57.065Z,103092.91
2022-10-18T14:44:29.326Z,103081.44
2022-10-18T14:46:55.689Z,103155.47
2022-10-18T14:49:22.130Z,103137.41
2022-10-18T14:51:52.270Z,103193.41
2022-10-18T14:54:25.005Z,103122.75
2022-10-18T14:56:54.167Z,103101.06
2022-10-18T14:59:23.548Z,103180.00
2022-10-18T15:02:02.647Z,103192.25
2022-10-18T15:04:29.705Z,103217.56
2022-10-18T15:06:56.478Z,103246.63
2022-10-18T15:09:24.226Z,103191.00
2022-10-18T15:11:51.714Z,103254.56
2022-10-18T15:14:19.808Z,103245.25
2022-10-18T15:16:47.345Z,103291.91
2022-10-18T15:19:13.706Z,103285.25
2022-10-18T15:21:59.130Z,103255.56
2022-10-18T15:24:37.558Z,103257.19
2022-10-18T15:27:20.810Z,103300.44
2022-10-18T15:29:47.303Z,103312.56
2022-10-18T15:32:30.583Z,103372.91
2022-10-18T15:35:08.916Z,103429.53
2022-10-18T15:37:47.115Z,103463.94
2022-10-18T15:40:33.735Z,103427.69
2022-10-18T15:43:03.128Z,103447.53
2022-10-18T15:45:32.719Z,103427.50
2022-10-18T15:48:08.308Z,103356.88
2022-10-18T15:50:40.361Z,103475.88
2022-10-18T15:53:21.923Z,103521.88
2022-10-18T15:56:00.983Z,103516.31
2022-10-18T15:58:35.167Z,103538.63
2022-10-18T16:01:02.026Z,103571.78
2022-10-18T16:03:28.700Z,103588.25
2022-10-18T16:05:59.622Z,103614.44
2022-10-18T16:08:29.820Z,103640.47
2022-10-18T16:10:58.191Z,103680.00
2022-10-18T16:13:25.469Z,103726.28
2022-10-18T16:15:52.194Z,103756.41
2022-10-18T16:18:20.170Z,103758.69
2022-10-18T16:20:47.731Z,103793.19
2022-10-18T16:23:16.191Z,103861.38
2022-10-18T16:25:42.739Z,103987.53
2022-10-18T16:28:14.035Z,104054.16
2022-10-18T16:30:42.263Z,104202.19
2022-10-18T16:33:08.639Z,104329.16
2022-10-18T16:35:35.100Z,104380.38
2022-10-18T16:38:01.871Z,104358.38
2022-10-18T16:40:28.290Z,104434.38
2022-10-18T16:42:55.093Z,104538.88
2022-10-18T16:45:21.552Z,104478.66
2022-10-18T16:47:47.973Z,104501.34
2022-10-18T16:50:17.941Z,104462.63
2022-10-18T16:52:44.357Z,104363.56
2022-10-18T16:55:11.764Z,104306.75
2022-10-18T16:57:38.134Z,104300.44
2022-10-18T17:00:05.382Z,104180.84
2022-10-18T17:02:32.121Z,104037.53
2022-10-18T17:04:58.896Z,103962.22
2022-10-18T17:07:25.420Z,104017.84
2022-10-18T17:09:51.863Z,104005.13
2022-10-18T17:12:18.254Z,103988.84
2022-10-18T17:14:44.670Z,103956.75
2022-10-18T17:17:12.376Z,104019.88
2022-10-18T17:19:38.783Z,104039.50
2022-10-18T17:22:05.166Z,104055.75
2022-10-18T17:24:31.625Z,104051.84
2022-10-18T17:26:58.115Z,104008.00
2022-10-18T17:29:24.495Z,104042.91
2022-10-18T17:31:50.970Z,104045.78
2022-10-18T17:34:20.947Z,104028.34
2022-10-18T17:36:47.901Z,104025.34
2022-10-18T17:39:14.384Z,104028.19
2022-10-18T17:41:40.818Z,104024.19
2022-10-18T17:44:07.236Z,104007.34
2022-10-18T17:46:33.771Z,104022.16
2022-10-18T17:49:00.410Z,104011.97
2022-10-18T17:51:26.846Z,104004.78
2022-10-18T17:53:53.915Z,104003.13
2022-10-18T17:56:20.398Z,103939.00
2022-10-18T17:58:50.899Z,103990.97
2022-10-18T18:01:20.477Z,103999.56
2022-10-18T18:03:47.468Z,103970.06
2022-10-18T18:06:28.946Z,103983.94
2022-10-18T18:08:55.386Z,103979.38
2022-10-18T18:11:21.788Z,103977.59
2022-10-18T18:13:48.206Z,103973.88
2022-10-18T18:16:23.857Z,103963.66
2022-10-18T18:18:56.122Z,103953.22
2022-10-18T18:21:23.310Z,103963.84
2022-10-18T18:23:50.384Z,103882.50
2022-10-18T18:26:21.794Z,103900.97
2022-10-18T18:28:48.582Z,103895.75
2022-10-18T18:31:20.805Z,103918.63
2022-10-18T18:33:47.218Z,103953.53
2022-10-18T18:36:13.636Z,103965.09
2022-10-18T18:38:40.778Z,103980.13
2022-10-18T18:41:11.857Z,103962.63
2022-10-18T18:43:41.017Z,103951.44
2022-10-18T18:46:08.710Z,103905.06
2022-10-18T18:48:36.357Z,103953.66
2022-10-18T18:51:04.624Z,103892.19
2022-10-18T18:53:31.605Z,103953.97
2022-10-18T18:56:06.337Z,103894.09
2022-10-18T18:58:35.400Z,103945.28
2022-10-18T19:01:29.984Z,103951.28
2022-10-18T19:03:58.675Z,103954.94
2022-10-18T19:06:30.473Z,103922.75
2022-10-18T19:08:58.255Z,103953.78
2022-10-18T19:11:24.691Z,103914.34
2022-10-18T19:13:51.114Z,103966.91
2022-10-18T19:16:40.182Z,103965.28
2022-10-18T19:19:18.459Z,103979.44
2022-10-18T19:21:56.683Z,103970.88
2022-10-18T19:24:25.684Z,103982.06
2022-10-18T19:26:57.767Z,103933.06
2022-10-18T19:29:35.647Z,103929.84
2022-10-18T19:32:04.899Z,104003.84
2022-10-18T19:34:32.127Z,103947.19
2022-10-18T19:36:58.586Z,104004.75
2022-10-18T19:39:27.508Z,104000.19
2022-10-18T19:41:56.178Z,104015.63
2022-10-18T19:44:24.520Z,103958.69
2022-10-18T19:46:50.992Z,104016.16
2022-10-18T19:49:17.856Z,103982.13
2022-10-18T19:51:44.710Z,104020.00
2022-10-18T19:54:12.559Z,103968.75
2022-10-18T19:56:39.787Z,104026.03
2022-10-18T19:59:06.205Z,104020.13
2022-10-18T20:01:33.153Z,104029.47
2022-10-18T20:03:59.669Z,103965.31
2022-10-18T20:06:26.450Z,104019.19
2022-10-18T20:08:53.093Z,104019.56
2022-10-18T20:11:22.864Z,103984.47
2022-10-18T20:13:49.800Z,104043.50
2022-10-18T20:16:17.858Z,104052.56
2022-10-18T20:18:44.387Z,104049.94
2022-10-18T20:21:13.451Z,104031.31
2022-10-18T20:23:41.236Z,104032.72
2022-10-18T20:26:15.467Z,104054.19
2022-10-18T20:28:45.600Z,104071.16
2022-10-18T20:31:14.394Z,104156.25
2022-10-18T20:33:41.473Z,104432.75
2022-10-18T20:36:15.894Z,104300.47
2022-10-18T20:38:44.891Z,104219.41
2022-10-18T20:41:17.308Z,104177.84
2022-10-18T20:43:44.534Z,104139.22
2022-10-18T20:46:11.541Z,104047.25
2022-10-18T20:48:37.931Z,104094.63
2022-10-18T20:51:06.656Z,104022.91
2022-10-18T20:53:34.964Z,104072.03
2022-10-18T20:56:09.089Z,104074.03
2022-10-18T20:58:37.204Z,104080.75
2022-10-18T21:01:07.573Z,104076.34
2022-10-18T21:03:36.737Z,104073.25
2022-10-18T21:06:12.638Z,104057.94
2022-10-18T21:08:39.745Z,104014.41
2022-10-18T21:11:06.730Z,104071.00
2022-10-18T21:13:33.209Z,104048.44
2022-10-18T21:16:00.997Z,104038.97
2022-10-18T21:18:29.512Z,104046.06
2022-10-18T21:21:05.988Z,104046.22
2022-10-18T21:23:32.391Z,103983.09
2022-10-18T21:25:58.810Z,104027.94
2022-10-18T21:28:25.336Z,103995.22
2022-10-18T21:30:51.769Z,103972.31
2022-10-18T21:33:18.183Z,103962.31
2022-10-18T21:35:44.528Z,103896.31
2022-10-18T21:38:10.926Z,103987.34
2022-10-18T21:40:37.805Z,103956.75
2022-10-18T21:43:04.228Z,103978.09
2022-10-18T21:45:30.669Z,103990.66
2022-10-18T21:47:57.224Z,103993.41
2022-10-18T21:50:23.669Z,104008.22
2022-10-18T21:52:50.036Z,104025.84
2022-10-18T21:55:16.472Z,104014.81
2022-10-18T21:57:42.888Z,104007.56
2022-10-18T22:00:10.027Z,104036.03
2022-10-18T22:02:36.432Z,104121.91
2022-10-18T22:05:03.828Z,104145.28
2022-10-18T22:07:31.760Z,104160.50
2022-10-18T22:09:58.356Z,104135.94
2022-10-18T22:12:24.766Z,104219.28
2022-10-18T22:14:51.163Z,104258.03
2022-10-18T22:17:17.583Z,104295.78
2022-10-18T22:19:44.002Z,104344.16
2022-10-18T22:22:10.458Z,104370.66
2022-10-18T22:24:36.891Z,104414.59
2022-10-18T22:27:03.296Z,104471.44
2022-10-18T22:29:29.698Z,104516.72
2022-10-18T22:31:56.082Z,104489.38
2022-10-18T22:34:26.724Z,104586.63
2022-10-18T22:36:53.780Z,104614.78
2022-10-18T22:39:20.188Z,104602.69
2022-10-18T22:41:46.770Z,104690.75
2022-10-18T22:44:14.713Z,104687.16
2022-10-18T22:46:42.077Z,104746.31
2022-10-18T22:49:08.609Z,104761.69
2022-10-18T22:54:06.488Z,104774.88
2022-10-18T22:56:33.155Z,104774.53
2022-10-18T22:58:59.585Z,104739.09
2022-10-18T23:01:25.991Z,104810.81
2022-10-18T23:03:58.120Z,104777.56
2022-10-18T23:06:27.317Z,104783.25
2022-10-18T23:08:56.066Z,104858.81
2022-10-18T23:11:23.349Z,104806.13
2022-10-18T23:13:49.971Z,104848.56
2022-10-18T23:16:17.134Z,104809.69
2022-10-18T23:18:43.880Z,104876.25
2022-10-18T23:21:12.690Z,104907.53
2022-10-18T23:23:41.603Z,104919.47
2022-10-18T23:26:20.044Z,104925.97
2022-10-18T23:28:48.350Z,104882.91
2022-10-18T23:31:27.431Z,104954.44
2022-10-18T23:33:56.417Z,104977.03
2022-10-18T23:36:23.031Z,105015.69
2022-10-18T23:38:50.067Z,105006.31
2022-10-18T23:41:17.754Z,105031.56
2022-10-18T23:43:45.004Z,105018.44
2022-10-18T23:46:12.478Z,105027.72
2022-10-18T23:48:38.886Z,105022.22
2022-10-18T23:51:06.305Z,105036.06
2022-10-18T23:53:33.518Z,105011.22
2022-10-18T23:56:02.897Z,105046.50
2022-10-18T23:58:31.565Z,105010.81
